createdAt,value
2018-04-04T00:02:01.582Z,15.80
2018-04-04T00:04:29.926Z,15.80
2018-04-04T00:06:57.553Z,15.80
2018-04-04T00:09:25.191Z,15.80
2018-04-04T00:11:53.571Z,15.70
2018-04-04T00:14:21.998Z,15.60
2018-04-04T00:16:49.654Z,15.60
2018-04-04T00:19:17.962Z,15.50
2018-04-04T00:21:45.545Z,15.50
2018-04-04T00:24:14.052Z,15.50
2018-04-04T00:26:41.660Z,15.50
2018-04-04T00:29:09.202Z,15.50
2018-04-04T00:31:36.978Z,15.50
2018-04-04T00:34:04.531Z,15.40
2018-04-04T00:36:32.146Z,15.40
2018-04-04T00:38:59.707Z,15.40
2018-04-04T00:41:27.317Z,15.40
2018-04-04T00:43:55.273Z,15.30
2018-04-04T00:46:22.992Z,15.30
2018-04-04T00:48:50.570Z,15.20
2018-04-04T00:51:18.155Z,15.20
2018-04-04T00:53:45.759Z,15.20
2018-04-04T00:56:13.324Z,15.20
2018-04-04T00:58:40.964Z,15.20
2018-04-04T01:01:09.382Z,15.10
2018-04-04T01:03:36.994Z,15.10
2018-04-04T01:06:05.338Z,15.00
2018-04-04T01:08:32.930Z,15.00
2018-04-04T01:11:01.258Z,14.90
2018-04-04T01:13:28.865Z,14.90
2018-04-04T01:15:57.194Z,14.70
2018-04-04T01:18:24.802Z,14.70
2018-04-04T01:20:53.158Z,14.90
2018-04-04T01:23:20.711Z,14.80
2018-04-04T01:25:49.072Z,14.90
2018-04-04T01:28:16.640Z,14.90
2018-04-04T01:30:44.230Z,14.60
2018-04-04T01:33:12.582Z,14.50
2018-04-04T01:35:40.257Z,14.50
2018-04-04T01:38:07.961Z,14.70
2018-04-04T01:40:35.583Z,14.50
2018-04-04T01:43:03.918Z,14.20
2018-04-04T01:45:31.534Z,14.20
2018-04-04T01:47:59.857Z,14.00
2018-04-04T01:50:27.414Z,14.00
2018-04-04T01:52:55.027Z,14.40
2018-04-04T01:55:23.435Z,14.20
2018-04-04T01:57:51.091Z,14.20
2018-04-04T02:00:18.657Z,14.30
2018-04-04T02:02:46.311Z,14.10
2018-04-04T02:05:13.889Z,14.20
2018-04-04T02:07:41.486Z,14.20
2018-04-04T02:10:09.046Z,14.20
2018-04-04T02:12:36.626Z,14.20
2018-04-04T02:15:04.194Z,14.40
2018-04-04T02:17:31.799Z,14.50
2018-04-04T02:19:59.363Z,14.50
2018-04-04T02:22:26.964Z,14.40
2018-04-04T02:24:54.555Z,14.40
2018-04-04T02:27:22.111Z,14.40
2018-04-04T02:29:49.715Z,14.40
2018-04-04T02:32:18.160Z,14.30
2018-04-04T02:34:45.755Z,14.30
2018-04-04T02:37:13.329Z,14.10
2018-04-04T02:39:41.703Z,14.20
2018-04-04T02:42:10.071Z,14.20
2018-04-04T02:44:38.544Z,14.10
2018-04-04T02:47:06.107Z,14.00
2018-04-04T02:49:33.690Z,13.90
2018-04-04T02:52:01.295Z,13.80
2018-04-04T02:54:28.894Z,13.70
2018-04-04T02:56:57.323Z,13.60
2018-04-04T02:59:24.890Z,13.60
2018-04-04T03:01:52.501Z,13.50
2018-04-04T03:04:20.186Z,13.50
2018-04-04T03:06:47.819Z,13.50
2018-04-04T03:09:16.146Z,13.50
2018-04-04T03:11:43.744Z,13.50
2018-04-04T03:14:12.130Z,13.60
2018-04-04T03:16:40.483Z,13.80
2018-04-04T03:19:08.098Z,13.80
2018-04-04T03:21:35.735Z,13.60
2018-04-04T03:24:03.307Z,13.40
2018-04-04T03:26:30.890Z,13.30
2018-04-04T03:28:58.631Z,13.30
2018-04-04T03:31:26.427Z,13.20
2018-04-04T03:33:54.147Z,13.20
2018-04-04T03:36:21.707Z,13.60
2018-04-04T03:38:49.346Z,13.60
2018-04-04T03:41:17.682Z,13.60
2018-04-04T03:43:45.367Z,13.60
2018-04-04T03:46:12.931Z,13.50
2018-04-04T03:48:41.403Z,13.30
2018-04-04T03:51:10.481Z,13.30
2018-04-04T03:53:38.038Z,13.30
2018-04-04T03:56:05.642Z,13.20
2018-04-04T03:58:33.966Z,13.00
2018-04-04T04:01:01.545Z,13.00
2018-04-04T04:03:29.102Z,12.90
2018-04-04T04:05:57.467Z,12.70
2018-04-04T04:08:25.278Z,12.70
2018-04-04T04:10:52.874Z,13.10
2018-04-04T04:13:20.547Z,13.20
2018-04-04T04:15:48.140Z,13.10
2018-04-04T04:18:16.452Z,13.30
2018-04-04T04:20:44.092Z,13.30
2018-04-04T04:23:11.843Z,13.10
2018-04-04T04:25:40.359Z,12.90
2018-04-04T04:28:07.990Z,12.90
2018-04-04T04:30:36.353Z,12.60
2018-04-04T04:33:04.703Z,12.50
2018-04-04T04:35:32.322Z,12.40
2018-04-04T04:37:59.903Z,12.40
2018-04-04T04:40:27.461Z,12.40
2018-04-04T04:42:55.080Z,12.50
2018-04-04T04:45:23.406Z,12.50
2018-04-04T04:47:50.983Z,12.50
2018-04-04T04:50:20.055Z,12.50
2018-04-04T04:52:47.638Z,12.50
2018-04-04T04:55:16.703Z,12.10
2018-04-04T04:57:44.314Z,12.20
2018-04-04T05:00:11.900Z,12.10
2018-04-04T05:02:39.531Z,12.10
2018-04-04T05:05:07.892Z,12.10
2018-04-04T05:07:35.470Z,12.00
2018-04-04T05:10:03.827Z,12.10
2018-04-04T05:12:31.395Z,12.10
2018-04-04T05:15:00.019Z,12.30
2018-04-04T05:17:27.602Z,12.20
2018-04-04T05:19:55.206Z,12.30
2018-04-04T05:22:23.545Z,12.00
2018-04-04T05:24:51.130Z,12.00
2018-04-04T05:27:19.478Z,12.00
2018-04-04T05:29:47.063Z,12.00
2018-04-04T05:32:14.631Z,12.20
2018-04-04T05:34:43.188Z,12.10
2018-04-04T05:37:10.874Z,12.00
2018-04-04T05:39:39.353Z,12.10
2018-04-04T05:42:07.750Z,12.10
2018-04-04T05:44:35.351Z,12.00
2018-04-04T05:47:02.943Z,12.10
2018-04-04T05:49:30.511Z,12.20
2018-04-04T05:51:59.066Z,12.60
2018-04-04T05:54:27.574Z,12.50
2018-04-04T05:56:56.062Z,12.60
2018-04-04T05:59:24.487Z,12.50
2018-04-04T06:01:52.154Z,12.40
2018-04-04T06:04:19.720Z,12.50
2018-04-04T06:06:47.370Z,12.40
2018-04-04T06:09:14.959Z,12.30
2018-04-04T06:11:42.515Z,12.20
2018-04-04T06:14:10.109Z,12.30
2018-04-04T06:16:37.665Z,12.30
2018-04-04T06:19:05.255Z,12.40
2018-04-04T06:21:32.820Z,12.60
2018-04-04T06:24:00.429Z,12.90
2018-04-04T06:26:28.830Z,12.60
2018-04-04T06:28:56.418Z,12.60
2018-04-04T06:31:24.004Z,12.60
2018-04-04T06:33:51.598Z,12.60
2018-04-04T06:36:19.202Z,12.60
2018-04-04T06:38:46.775Z,12.70
2018-04-04T06:41:14.377Z,13.00
2018-04-04T06:43:41.927Z,13.20
2018-04-04T06:46:09.502Z,13.80
2018-04-04T06:48:37.093Z,14.50
2018-04-04T06:51:04.648Z,14.60
2018-04-04T06:53:32.223Z,15.00
2018-04-04T06:56:00.658Z,14.70
2018-04-04T06:58:28.218Z,14.70
2018-04-04T07:00:55.860Z,14.60
2018-04-04T07:03:23.426Z,14.80
2018-04-04T07:05:51.019Z,14.60
2018-04-04T07:08:18.631Z,14.70
2018-04-04T07:10:46.212Z,14.50
2018-04-04T07:13:13.807Z,14.20
2018-04-04T07:15:41.380Z,14.20
2018-04-04T07:18:08.962Z,14.40
2018-04-04T07:20:37.327Z,14.20
2018-04-04T07:23:04.960Z,14.20
2018-04-04T07:25:32.566Z,14.70
2018-04-04T07:28:01.033Z,14.80
2018-04-04T07:30:29.759Z,14.80
2018-04-04T07:32:57.388Z,14.70
2018-04-04T07:35:25.791Z,15.30
2018-04-04T07:37:53.394Z,15.30
2018-04-04T07:40:20.991Z,15.40
2018-04-04T07:42:48.808Z,15.50
2018-04-04T07:45:17.358Z,15.50
2018-04-04T07:47:44.926Z,15.50
2018-04-04T07:50:12.508Z,15.50
2018-04-04T07:52:40.511Z,15.70
2018-04-04T07:55:08.905Z,15.50
2018-04-04T07:57:36.488Z,15.50
2018-04-04T08:00:09.487Z,15.80
2018-04-04T08:02:37.271Z,15.70
2018-04-04T08:05:04.827Z,15.80
2018-04-04T08:07:32.544Z,15.90
2018-04-04T08:10:00.123Z,16.10
2018-04-04T08:12:27.723Z,16.40
2018-04-04T08:14:56.073Z,17.10
2018-04-04T08:17:23.671Z,17.10
2018-04-04T08:19:52.056Z,17.70
2018-04-04T08:22:19.622Z,17.60
2018-04-04T08:24:47.186Z,17.80
2018-04-04T08:27:14.863Z,17.80
2018-04-04T08:29:42.418Z,17.30
2018-04-04T08:32:10.053Z,17.50
2018-04-04T08:34:37.655Z,18.10
2018-04-04T08:37:05.251Z,18.40
2018-04-04T08:39:33.629Z,18.40
2018-04-04T08:42:01.990Z,18.60
2018-04-04T08:44:29.558Z,18.60
2018-04-04T08:46:57.115Z,19.00
2018-04-04T08:49:24.862Z,19.40
2018-04-04T08:51:52.558Z,19.90
2018-04-04T08:54:20.903Z,19.90
2018-04-04T08:56:48.469Z,19.90
2018-04-04T08:59:16.067Z,21.10
2018-04-04T09:01:43.636Z,21.90
2018-04-04T09:04:11.228Z,21.90
2018-04-04T09:06:38.796Z,21.80
2018-04-04T09:09:06.409Z,21.10
2018-04-04T09:11:33.991Z,20.60
2018-04-04T09:14:01.617Z,21.00
2018-04-04T09:16:29.282Z,21.50
2018-04-04T09:18:56.985Z,20.70
2018-04-04T09:21:24.567Z,20.00
2018-04-04T09:23:52.243Z,20.70
2018-04-04T09:26:20.771Z,22.50
2018-04-04T09:28:48.343Z,22.50
2018-04-04T09:31:15.983Z,22.40
2018-04-04T09:33:43.629Z,21.30
2018-04-04T09:36:11.212Z,22.00
2018-04-04T09:38:38.791Z,22.90
2018-04-04T09:41:06.374Z,22.60
2018-04-04T09:43:34.736Z,22.30
2018-04-04T09:46:02.402Z,22.30
2018-04-04T09:48:29.970Z,22.90
2018-04-04T09:50:58.475Z,21.80
2018-04-04T09:53:26.047Z,21.70
2018-04-04T09:55:53.659Z,20.90
2018-04-04T09:58:21.323Z,20.60
2018-04-04T10:00:49.700Z,22.30
2018-04-04T10:03:17.322Z,22.30
2018-04-04T10:05:44.892Z,23.20
2018-04-04T10:08:12.488Z,23.90
2018-04-04T10:10:41.019Z,23.80
2018-04-04T10:13:08.657Z,23.80
2018-04-04T10:15:36.243Z,23.10
2018-04-04T10:18:03.853Z,24.40
2018-04-04T10:20:31.464Z,23.20
2018-04-04T10:22:59.089Z,23.10
2018-04-04T10:25:26.668Z,23.50
2018-04-04T10:27:54.395Z,23.20
2018-04-04T10:30:21.960Z,23.40
2018-04-04T10:32:49.551Z,22.70
2018-04-04T10:35:17.121Z,22.80
2018-04-04T10:37:44.706Z,21.40
2018-04-04T10:40:12.296Z,21.50
2018-04-04T10:42:39.899Z,20.40
2018-04-04T10:45:07.534Z,21.50
2018-04-04T10:47:35.090Z,22.20
2018-04-04T10:50:02.765Z,24.00
2018-04-04T10:52:30.511Z,23.50
2018-04-04T10:54:58.220Z,24.70
2018-04-04T10:57:25.812Z,25.30
2018-04-04T10:59:53.603Z,25.10
2018-04-04T11:02:21.204Z,24.10
2018-04-04T11:04:48.820Z,23.70
2018-04-04T11:07:16.377Z,24.20
2018-04-04T11:09:43.938Z,26.10
2018-04-04T11:12:11.544Z,25.10
2018-04-04T11:14:39.924Z,25.20
2018-04-04T11:17:07.530Z,25.20
2018-04-04T11:19:35.114Z,25.20
2018-04-04T11:22:02.733Z,23.30
2018-04-04T11:24:30.330Z,24.40
2018-04-04T11:26:57.957Z,25.40
2018-04-04T11:29:25.562Z,25.60
2018-04-04T11:31:53.152Z,26.00
2018-04-04T11:34:21.732Z,25.80
2018-04-04T11:36:50.072Z,23.60
2018-04-04T11:39:17.675Z,23.60
2018-04-04T11:41:46.012Z,25.40
2018-04-04T11:44:13.732Z,25.40
2018-04-04T11:46:41.289Z,24.70
2018-04-04T11:49:08.887Z,24.00
2018-04-04T11:51:36.444Z,24.90
2018-04-04T11:54:04.027Z,24.00
2018-04-04T11:56:32.366Z,23.30
2018-04-04T11:58:59.972Z,23.20
2018-04-04T12:01:28.315Z,23.10
2018-04-04T12:03:56.053Z,23.10
2018-04-04T12:06:23.621Z,22.80
2018-04-04T12:08:51.243Z,23.10
2018-04-04T12:11:18.831Z,23.10
2018-04-04T12:13:46.406Z,22.80
2018-04-04T12:16:13.964Z,22.60
2018-04-04T12:18:41.592Z,22.60
2018-04-04T12:21:09.174Z,22.70
2018-04-04T12:23:36.823Z,22.60
2018-04-04T12:26:04.470Z,22.90
2018-04-04T12:28:32.030Z,22.80
2018-04-04T12:30:59.611Z,22.90
2018-04-04T12:33:27.171Z,22.90
2018-04-04T12:35:54.783Z,22.70
2018-04-04T12:38:22.350Z,22.60
2018-04-04T12:40:49.946Z,22.80
2018-04-04T12:43:17.500Z,22.40
2018-04-04T12:45:45.112Z,22.50
2018-04-04T12:48:13.472Z,22.80
2018-04-04T12:50:41.118Z,22.80
2018-04-04T12:53:08.747Z,23.40
2018-04-04T12:55:36.398Z,24.10
2018-04-04T12:58:04.008Z,24.70
2018-04-04T13:00:31.572Z,24.00
2018-04-04T13:02:59.175Z,23.30
2018-04-04T13:05:26.740Z,22.90
2018-04-04T13:07:54.344Z,22.70
2018-04-04T13:10:21.944Z,22.60
2018-04-04T13:12:49.563Z,22.40
2018-04-04T13:15:17.126Z,22.20
2018-04-04T13:17:44.696Z,19.80
2018-04-04T13:20:13.062Z,18.60
2018-04-04T13:22:40.646Z,18.60
2018-04-04T13:25:08.222Z,19.10
2018-04-04T13:27:35.815Z,19.60
2018-04-04T13:30:03.411Z,19.70
2018-04-04T13:32:31.838Z,18.80
2018-04-04T13:34:59.401Z,18.80
2018-04-04T13:37:26.999Z,18.90
2018-04-04T13:39:55.370Z,18.00
2018-04-04T13:42:22.939Z,18.00
2018-04-04T13:44:51.311Z,17.70
2018-04-04T13:47:19.695Z,17.80
2018-04-04T13:49:48.047Z,18.20
2018-04-04T13:52:15.634Z,18.30
2018-04-04T13:54:44.027Z,18.20
2018-04-04T13:57:11.615Z,18.20
2018-04-04T13:59:39.206Z,18.10
2018-04-04T14:02:06.911Z,18.10
2018-04-04T14:04:34.473Z,17.90
2018-04-04T14:07:02.142Z,17.60
2018-04-04T14:09:29.782Z,17.70
2018-04-04T14:11:57.318Z,18.40
2018-04-04T14:14:25.774Z,18.20
2018-04-04T14:16:54.870Z,17.80
2018-04-04T14:19:22.451Z,17.80
2018-04-04T14:21:50.837Z,17.70
2018-04-04T14:24:19.154Z,18.10
2018-04-04T14:26:46.762Z,18.10
2018-04-04T14:29:15.235Z,17.60
2018-04-04T14:31:42.831Z,17.60
2018-04-04T14:34:10.494Z,19.00
2018-04-04T14:36:38.044Z,18.00
2018-04-04T14:39:05.762Z,18.50
2018-04-04T14:41:33.338Z,19.30
2018-04-04T14:44:01.700Z,18.70
2018-04-04T14:46:29.280Z,18.70
2018-04-04T14:48:57.675Z,18.40
2018-04-04T14:51:25.242Z,18.40
2018-04-04T14:53:52.812Z,17.40
2018-04-04T14:56:20.461Z,17.50
2018-04-04T14:58:48.842Z,18.30
2018-04-04T15:01:16.439Z,18.20
2018-04-04T15:03:44.132Z,18.20
2018-04-04T15:06:12.536Z,17.80
2018-04-04T15:08:40.229Z,17.80
2018-04-04T15:11:07.859Z,17.50
2018-04-04T15:13:35.531Z,17.10
2018-04-04T15:16:03.207Z,17.10
2018-04-04T15:18:30.763Z,16.90
2018-04-04T15:20:58.383Z,16.60
2018-04-04T15:23:25.943Z,16.40
2018-04-04T15:25:53.516Z,16.10
2018-04-04T15:28:21.123Z,16.20
2018-04-04T15:30:48.713Z,16.10
2018-04-04T15:33:17.092Z,16.00
2018-04-04T15:35:45.428Z,15.80
2018-04-04T15:38:13.234Z,15.80
2018-04-04T15:40:40.812Z,15.60
2018-04-04T15:43:08.431Z,15.50
2018-04-04T15:45:36.802Z,15.50
2018-04-04T15:48:04.379Z,15.50
2018-04-04T15:50:32.918Z,15.00
2018-04-04T15:53:00.621Z,15.00
2018-04-04T15:55:29.003Z,14.50
2018-04-04T15:57:57.380Z,14.50
2018-04-04T16:00:25.840Z,14.20
2018-04-04T16:02:54.386Z,14.10
2018-04-04T16:05:22.004Z,14.20
2018-04-04T16:07:49.567Z,14.00
2018-04-04T16:10:17.172Z,14.10
2018-04-04T16:12:44.757Z,14.00
2018-04-04T16:15:12.385Z,14.00
2018-04-04T16:17:39.967Z,13.90
2018-04-04T16:20:07.779Z,14.00
2018-04-04T16:22:35.407Z,14.10
2018-04-04T16:25:03.823Z,14.20
2018-04-04T16:27:31.399Z,14.20
2018-04-04T16:29:58.995Z,13.80
2018-04-04T16:32:26.551Z,13.90
2018-04-04T16:34:54.111Z,13.70
2018-04-04T16:37:21.700Z,13.70
2018-04-04T16:39:49.360Z,13.60
2018-04-04T16:42:17.027Z,13.70
2018-04-04T16:44:44.617Z,13.50
2018-04-04T16:47:12.204Z,13.40
2018-04-04T16:49:39.935Z,13.10
2018-04-04T16:52:07.553Z,13.10
2018-04-04T16:54:35.135Z,13.00
2018-04-04T16:57:02.760Z,12.90
2018-04-04T16:59:31.110Z,12.90
2018-04-04T17:01:58.734Z,12.90
2018-04-04T17:04:26.312Z,13.00
2018-04-04T17:06:53.924Z,13.00
2018-04-04T17:09:22.423Z,12.90
2018-04-04T17:11:50.019Z,12.90
2018-04-04T17:14:17.624Z,13.00
2018-04-04T17:16:45.212Z,13.10
2018-04-04T17:19:12.880Z,12.80
2018-04-04T17:21:40.484Z,12.80
2018-04-04T17:24:08.847Z,12.90
2018-04-04T17:26:37.943Z,12.70
2018-04-04T17:29:05.543Z,12.70
2018-04-04T17:31:33.128Z,12.70
2018-04-04T17:34:00.832Z,12.70
2018-04-04T17:36:29.184Z,12.70
2018-04-04T17:38:57.112Z,12.70
2018-04-04T17:41:24.671Z,12.50
2018-04-04T17:43:52.383Z,12.50
2018-04-04T17:46:19.966Z,12.60
2018-04-04T17:48:48.546Z,12.40
2018-04-04T17:51:16.959Z,12.30
2018-04-04T17:53:44.699Z,12.30
2018-04-04T17:56:12.300Z,12.30
2018-04-04T17:58:39.903Z,12.20
2018-04-04T18:01:08.302Z,12.20
2018-04-04T18:03:35.858Z,12.20
2018-04-04T18:06:03.463Z,12.20
2018-04-04T18:08:31.058Z,12.10
2018-04-04T18:10:59.607Z,12.00
2018-04-04T18:13:27.192Z,12.00
2018-04-04T18:15:55.545Z,12.00
2018-04-04T18:18:23.287Z,12.00
2018-04-04T18:20:51.300Z,12.10
2018-04-04T18:23:19.636Z,11.90
2018-04-04T18:25:47.282Z,11.90
2018-04-04T18:28:15.615Z,11.90
2018-04-04T18:30:43.966Z,11.80
2018-04-04T18:33:11.567Z,11.80
2018-04-04T18:35:39.325Z,11.80
2018-04-04T18:38:06.919Z,11.70
2018-04-04T18:40:35.279Z,11.70
2018-04-04T18:43:02.871Z,11.70
2018-04-04T18:45:30.471Z,11.70
2018-04-04T18:47:58.840Z,11.70
2018-04-04T18:50:27.246Z,11.60
2018-04-04T18:52:55.015Z,11.60
2018-04-04T18:55:22.619Z,11.70
2018-04-04T18:57:51.074Z,11.60
2018-04-04T19:00:18.667Z,11.60
2018-04-04T19:02:46.330Z,11.60
2018-04-04T19:05:15.549Z,11.50
2018-04-04T19:07:43.120Z,11.50
2018-04-04T19:10:10.732Z,11.50
2018-04-04T19:12:38.427Z,11.50
2018-04-04T19:15:06.032Z,11.50
2018-04-04T19:17:33.655Z,11.40
2018-04-04T19:20:01.538Z,11.40
2018-04-04T19:22:29.171Z,11.30
2018-04-04T19:24:57.515Z,11.30
2018-04-04T19:27:25.311Z,11.30
2018-04-04T19:29:53.803Z,11.30
2018-04-04T19:32:21.392Z,11.30
2018-04-04T19:34:49.047Z,11.30
2018-04-04T19:37:16.671Z,11.30
2018-04-04T19:39:45.007Z,11.30
2018-04-04T19:42:12.619Z,11.30
2018-04-04T19:44:40.237Z,11.40
2018-04-04T19:47:07.845Z,11.30
2018-04-04T19:49:35.452Z,11.30
2018-04-04T19:52:03.037Z,11.40
2018-04-04T19:54:31.444Z,11.30
2018-04-04T19:56:59.012Z,11.30
2018-04-04T19:59:28.580Z,11.30
2018-04-04T20:01:56.939Z,11.30
2018-04-04T20:04:24.549Z,11.30
2018-04-04T20:06:52.203Z,11.40
2018-04-04T20:09:19.855Z,11.40
2018-04-04T20:11:47.417Z,11.30
2018-04-04T20:14:15.059Z,11.30
2018-04-04T20:16:43.495Z,11.30
2018-04-04T20:19:11.127Z,11.20
2018-04-04T20:21:38.880Z,11.30
2018-04-04T20:24:06.463Z,11.20
2018-04-04T20:26:34.052Z,11.20
2018-04-04T20:29:03.159Z,11.10
2018-04-04T20:31:31.536Z,11.10
2018-04-04T20:33:59.943Z,11.10
2018-04-04T20:36:27.555Z,11.10
2018-04-04T20:38:55.156Z,11.10
2018-04-04T20:41:22.770Z,11.10
2018-04-04T20:43:50.621Z,11.10
2018-04-04T20:46:18.195Z,11.10
2018-04-04T20:48:45.832Z,11.10
2018-04-04T20:51:13.464Z,11.10
2018-04-04T20:53:41.866Z,11.10
2018-04-04T20:56:10.085Z,11.10
2018-04-04T20:58:38.015Z,11.10
2018-04-04T21:01:05.628Z,11.10
2018-04-04T21:03:34.045Z,11.00
2018-04-04T21:06:01.642Z,11.00
2018-04-04T21:08:29.238Z,11.00
2018-04-04T21:10:56.804Z,11.00
2018-04-04T21:13:24.363Z,11.00
2018-04-04T21:15:52.072Z,11.00
2018-04-04T21:18:19.680Z,11.00
2018-04-04T21:20:47.262Z,11.00
2018-04-04T21:23:14.916Z,10.90
2018-04-04T21:25:42.574Z,10.90
2018-04-04T21:28:10.135Z,10.90
2018-04-04T21:30:37.748Z,10.90
2018-04-04T21:33:06.084Z,10.90
2018-04-04T21:35:33.696Z,10.90
2018-04-04T21:38:02.073Z,10.90
2018-04-04T21:40:30.424Z,10.90
2018-04-04T21:42:58.812Z,10.90
2018-04-04T21:45:27.190Z,10.90
2018-04-04T21:47:55.543Z,10.80
2018-04-04T21:50:24.020Z,10.90
2018-04-04T21:52:51.807Z,10.80
2018-04-04T21:55:19.399Z,10.90
2018-04-04T21:57:46.966Z,10.80
2018-04-04T22:00:14.575Z,10.90
2018-04-04T22:02:42.139Z,10.90
2018-04-04T22:05:09.749Z,10.90
2018-04-04T22:07:37.360Z,10.80
2018-04-04T22:10:05.714Z,10.90
2018-04-04T22:12:33.314Z,10.90
2018-04-04T22:15:01.699Z,10.90
2018-04-04T22:17:29.508Z,10.90
2018-04-04T22:19:57.146Z,10.80
2018-04-04T22:22:24.771Z,10.90
2018-04-04T22:24:53.236Z,10.90
2018-04-04T22:27:21.699Z,10.80
2018-04-04T22:29:49.240Z,10.80
2018-04-04T22:32:16.812Z,10.90
2018-04-04T22:34:44.402Z,10.90
2018-04-04T22:37:12.722Z,10.80
2018-04-04T22:39:40.339Z,10.80
2018-04-04T22:42:08.666Z,10.90
2018-04-04T22:44:36.260Z,10.90
2018-04-04T22:47:04.727Z,10.90
2018-04-04T22:49:32.326Z,10.90
2018-04-04T22:52:00.020Z,10.90
2018-04-04T22:54:27.614Z,10.90
2018-04-04T22:56:56.725Z,10.80
2018-04-04T22:59:25.047Z,10.80
2018-04-04T23:01:52.654Z,10.80
2018-04-04T23:04:21.115Z,10.80
2018-04-04T23:06:48.766Z,10.80
2018-04-04T23:09:16.331Z,10.70
2018-04-04T23:11:44.167Z,10.70
2018-04-04T23:14:11.806Z,10.80
2018-04-04T23:16:39.350Z,10.70
2018-04-04T23:19:07.739Z,10.70
2018-04-04T23:21:35.299Z,10.70
2018-04-04T23:24:02.911Z,10.70
2018-04-04T23:26:30.514Z,10.60
2018-04-04T23:28:58.133Z,10.60
2018-04-04T23:31:25.728Z,10.50
2018-04-04T23:33:53.400Z,10.50
2018-04-04T23:36:20.962Z,10.50
2018-04-04T23:38:48.551Z,10.50
2018-04-04T23:41:16.115Z,10.50
2018-04-04T23:43:43.704Z,10.60
2018-04-04T23:46:11.272Z,10.50
2018-04-04T23:48:39.632Z,10.50
2018-04-04T23:51:07.950Z,10.40
2018-04-04T23:53:35.779Z,10.40
2018-04-04T23:56:04.130Z,10.50
2018-04-04T23:58:31.813Z,10.40
